Time;durP1;ratioP1;P1;durP2;ratioP2;P2;SDS_P1;SDS_P2;PMS_P1;PMS_P2;Temp;Humidity;BMP_temperature;BMP_pressure;BME280_temperature;BME280_humidity;BME280_pressure;Samples;Min_cycle;Max_cycle;Signal;HPM_P1;HPM_P2
2023/05/28 00:00:45;;;;;;;16.30;12.10;;;24.80;44.10;;;;;;4998206;28;20445;-80
2023/05/28 00:03:17;;;;;;;15.93;11.47;;;24.80;44.20;;;;;;4999203;28;20441;-80
2023/05/28 00:05:46;;;;;;;16.60;10.70;;;24.80;44.30;;;;;;4998683;28;20469;-80
2023/05/28 00:08:15;;;;;;;17.60;11.70;;;24.80;44.30;;;;;;4989331;28;20450;-80
2023/05/28 00:10:43;;;;;;;16.47;11.57;;;24.80;44.30;;;;;;4992059;28;20453;-80
2023/05/28 00:13:11;;;;;;;17.80;11.03;;;24.80;44.40;;;;;;4989166;28;20445;-79
2023/05/28 00:15:39;;;;;;;14.10;10.30;;;24.70;44.30;;;;;;4984638;28;20560;-80
2023/05/28 00:18:11;;;;;;;14.00;10.50;;;24.60;44.30;;;;;;4997627;28;20428;-80
2023/05/28 00:20:39;;;;;;;16.03;11.40;;;24.60;44.40;;;;;;4998813;28;20869;-80
2023/05/28 00:23:08;;;;;;;19.03;11.77;;;24.60;44.40;;;;;;4996743;28;20449;-80
2023/05/28 00:25:36;;;;;;;14.23;10.20;;;24.60;44.50;;;;;;4992719;28;20554;-80
2023/05/28 00:28:04;;;;;;;14.57;10.10;;;24.60;44.60;;;;;;4996672;28;20480;-80
2023/05/28 00:30:31;;;;;;;14.93;11.00;;;24.60;44.60;;;;;;4987552;28;20443;-80
2023/05/28 00:33:00;;;;;;;16.13;11.07;;;24.50;44.50;;;;;;4996937;28;20435;-80
2023/05/28 00:35:30;;;;;;;18.40;11.07;;;24.40;44.50;;;;;;4997133;28;20492;-80
2023/05/28 00:37:58;;;;;;;15.40;10.30;;;24.40;44.60;;;;;;4987994;28;20481;-81
2023/05/28 00:40:26;;;;;;;13.27;9.67;;;24.40;44.70;;;;;;4989392;28;20481;-81
2023/05/28 00:42:54;;;;;;;12.10;9.60;;;24.40;44.80;;;;;;4994902;28;20525;-80
2023/05/28 00:45:23;;;;;;;13.87;10.37;;;24.40;44.80;;;;;;4995809;28;20497;-80
2023/05/28 00:47:51;;;;;;;13.93;9.70;;;24.30;44.70;;;;;;4993194;28;20480;-80
2023/05/28 01:23:31;;;;;;;10.93;8.30;;;23.90;45.20;;;;;;4992964;28;20512;-81
2023/05/28 01:26:00;;;;;;;10.43;8.00;;;23.90;45.30;;;;;;4992642;28;21122;-81
2023/05/28 01:28:28;;;;;;;12.40;8.43;;;23.90;45.10;;;;;;4995382;28;20445;-80
2023/05/28 01:30:56;;;;;;;9.07;7.00;;;23.90;45.40;;;;;;4989568;28;20532;-80
2023/05/28 01:33:24;;;;;;;9.57;7.50;;;23.90;45.30;;;;;;4995057;28;20419;-80
2023/05/28 01:35:52;;;;;;;9.47;7.00;;;23.80;45.30;;;;;;4992141;28;20484;-80
2023/05/28 01:38:21;;;;;;;10.93;7.40;;;23.80;45.20;;;;;;4990675;28;20548;-80
2023/05/28 01:40:53;;;;;;;10.10;7.47;;;23.80;45.30;;;;;;4985427;28;20465;-80
2023/05/28 01:43:23;;;;;;;11.13;8.10;;;23.80;45.20;;;;;;4988301;28;20441;-80
2023/05/28 01:45:51;;;;;;;11.60;7.47;;;23.80;45.20;;;;;;4993349;28;20969;-80
2023/05/28 01:48:19;;;;;;;9.20;7.50;;;23.80;45.40;;;;;;4995920;28;20441;-80
2023/05/28 01:50:47;;;;;;;9.33;6.70;;;23.80;45.40;;;;;;4997318;28;20524;-81
2023/05/28 01:53:15;;;;;;;8.90;6.30;;;23.70;45.20;;;;;;4993626;28;20448;-80
2023/05/28 01:55:43;;;;;;;9.57;6.60;;;23.70;45.90;;;;;;4989611;28;20564;-81
2023/05/28 01:58:10;;;;;;;14.47;7.50;;;23.70;45.50;;;;;;4995224;28;20473;-80
2023/05/28 02:00:43;;;;;;;7.63;6.30;;;23.70;45.40;;;;;;4996410;28;20441;-80
2023/05/28 02:03:11;;;;;;;7.63;5.80;;;23.70;45.50;;;;;;4996260;28;20503;-81
2023/05/28 02:05:39;;;;;;;13.20;6.37;;;23.70;45.50;;;;;;4989311;28;20473;-80
2023/05/28 02:08:07;;;;;;;8.37;6.23;;;23.70;45.50;;;;;;4992512;28;20437;-81
2023/05/28 02:10:35;;;;;;;9.20;6.77;;;23.70;45.50;;;;;;4990932;28;20528;-81
2023/05/28 02:13:04;;;;;;;7.63;5.53;;;23.70;45.40;;;;;;4994858;28;20469;-80
2023/05/28 02:15:32;;;;;;;8.50;6.97;;;23.70;45.50;;;;;;4995000;28;20472;-81
2023/05/28 02:18:02;;;;;;;6.50;5.40;;;23.60;45.60;;;;;;4999980;28;20468;-80
2023/05/28 02:20:30;;;;;;;10.83;6.33;;;23.60;45.50;;;;;;4997589;28;20891;-81
2023/05/28 02:22:59;;;;;;;8.10;5.63;;;23.60;45.60;;;;;;4999306;28;20445;-80
2023/05/28 02:25:27;;;;;;;9.80;5.93;;;23.60;45.60;;;;;;4999514;28;20475;-81
2023/05/28 02:27:55;;;;;;;10.60;6.70;;;23.60;45.60;;;;;;4993877;28;20433;-81
2023/05/28 02:30:23;;;;;;;8.37;5.57;;;23.60;45.60;;;;;;4993326;28;20438;-81
2023/05/28 02:32:50;;;;;;;9.60;5.50;;;23.60;45.60;;;;;;4999940;28;20445;-80
2023/05/28 02:35:21;;;;;;;9.27;5.30;;;23.60;45.60;;;;;;4992256;28;20481;-81
2023/05/28 02:37:49;;;;;;;7.63;5.80;;;23.50;45.60;;;;;;4995432;28;20513;-81
2023/05/28 02:40:17;;;;;;;6.33;5.53;;;23.50;45.50;;;;;;4992363;28;20538;-81
2023/05/28 02:42:46;;;;;;;8.03;5.60;;;23.50;45.60;;;;;;4992695;28;20419;-80
2023/05/28 02:45:14;;;;;;;7.13;5.57;;;23.50;45.70;;;;;;4995555;28;20501;-80
2023/05/28 02:47:43;;;;;;;8.33;5.50;;;23.50;45.70;;;;;;4998999;28;20445;-81
2023/05/28 02:50:11;;;;;;;6.47;5.60;;;23.40;45.80;;;;;;4998107;28;20445;-81
2023/05/28 02:52:40;;;;;;;5.83;5.33;;;23.40;45.70;;;;;;4999444;28;20483;-80
2023/05/28 02:55:09;;;;;;;6.43;5.00;;;23.40;45.80;;;;;;4997001;28;20471;-80
2023/05/28 02:57:37;;;;;;;7.20;5.20;;;23.40;45.80;;;;;;4993148;28;20517;-80
2023/05/28 03:00:09;;;;;;;7.30;5.20;;;23.40;45.80;;;;;;4999450;28;20452;-81
2023/05/28 03:02:37;;;;;;;8.63;5.00;;;23.30;45.90;;;;;;4999361;28;20434;-80
2023/05/28 03:05:05;;;;;;;6.00;4.70;;;23.30;45.90;;;;;;4999112;28;20472;-81
2023/05/28 03:07:33;;;;;;;5.90;4.90;;;23.30;45.80;;;;;;4994865;28;20484;-81
2023/05/28 03:10:03;;;;;;;6.80;4.97;;;23.30;45.80;;;;;;4994334;28;20511;-81
2023/05/28 03:12:31;;;;;;;6.90;4.70;;;23.30;46.40;;;;;;4998770;28;20536;-81
2023/05/28 03:14:59;;;;;;;6.97;5.23;;;23.30;45.90;;;;;;4998110;28;20473;-81
2023/05/28 03:17:27;;;;;;;8.70;4.87;;;23.30;45.90;;;;;;4992297;28;20572;-81
2023/05/28 03:19:55;;;;;;;5.37;4.23;;;23.30;45.90;;;;;;4998451;28;20503;-81
2023/05/28 03:22:24;;;;;;;5.63;4.90;;;23.30;45.90;;;;;;4997536;28;20491;-81
2023/05/28 03:24:52;;;;;;;5.50;4.30;;;23.20;45.90;;;;;;4997187;28;20460;-81
2023/05/28 03:27:22;;;;;;;6.33;4.97;;;23.20;45.90;;;;;;4997581;28;20438;-81
2023/05/28 03:29:50;;;;;;;9.70;4.50;;;23.20;46.00;;;;;;4992610;28;20446;-81
2023/05/28 03:32:18;;;;;;;4.87;4.40;;;23.10;46.00;;;;;;4991235;28;20441;-81
2023/05/28 03:34:47;;;;;;;5.43;4.47;;;23.20;46.10;;;;;;4998368;28;20477;-81
2023/05/28 03:37:14;;;;;;;7.27;5.07;;;23.10;46.00;;;;;;4997444;28;20459;-81
2023/05/28 03:39:42;;;;;;;5.30;4.70;;;23.10;46.10;;;;;;4991016;28;20457;-81
2023/05/28 03:42:10;;;;;;;7.53;4.40;;;23.10;46.10;;;;;;4999011;28;20450;-80
2023/05/28 03:44:40;;;;;;;6.67;4.50;;;23.10;46.00;;;;;;4988835;28;20565;-81
2023/05/28 03:47:08;;;;;;;6.13;4.43;;;23.10;46.00;;;;;;4995575;28;20479;-81
2023/05/28 03:49:36;;;;;;;5.07;4.27;;;23.10;46.10;;;;;;4995886;28;20457;-81
2023/05/28 03:52:05;;;;;;;6.97;4.80;;;23.10;46.10;;;;;;4988596;28;20424;-81
2023/05/28 03:54:34;;;;;;;5.93;4.30;;;23.10;46.80;;;;;;4989899;28;20469;-81
2023/05/28 03:57:02;;;;;;;7.37;4.60;;;23.10;46.00;;;;;;4993239;28;20442;-81
2023/05/28 03:59:30;;;;;;;7.50;3.97;;;23.10;46.10;;;;;;4997622;28;20473;-81
2023/05/28 04:02:01;;;;;;;4.93;4.40;;;23.10;46.00;;;;;;4995664;28;20472;-80
2023/05/28 04:04:29;;;;;;;4.80;4.10;;;23.10;46.00;;;;;;4996283;28;20469;-80
2023/05/28 04:06:58;;;;;;;4.57;4.17;;;23.10;46.20;;;;;;4997246;28;20476;-80
2023/05/28 04:09:27;;;;;;;4.23;3.83;;;23.10;46.00;;;;;;4998655;28;20503;-80
2023/05/28 04:11:56;;;;;;;5.17;4.40;;;23.20;46.20;;;;;;4994280;28;20467;-81
2023/05/28 04:14:25;;;;;;;4.60;3.87;;;23.10;45.90;;;;;;4997853;28;20461;-81
2023/05/28 04:16:54;;;;;;;6.67;4.27;;;23.20;45.90;;;;;;4993922;28;20437;-81
2023/05/28 04:19:24;;;;;;;6.00;4.13;;;23.10;46.00;;;;;;4996623;28;20555;-80
2023/05/28 04:21:52;;;;;;;5.30;4.33;;;23.20;46.00;;;;;;4997340;28;20441;-81
2023/05/28 04:24:20;;;;;;;5.00;4.03;;;23.20;45.90;;;;;;4995624;28;20492;-81
2023/05/28 04:26:48;;;;;;;4.77;4.20;;;23.20;46.00;;;;;;4998316;28;20488;-81
2023/05/28 04:29:17;;;;;;;5.87;4.50;;;23.20;46.00;;;;;;4997476;28;20441;-81
2023/05/28 04:31:47;;;;;;;4.70;3.60;;;23.20;45.80;;;;;;4987473;28;20504;-81
2023/05/28 04:34:17;;;;;;;5.87;4.23;;;23.30;46.00;;;;;;4993798;28;20504;-80
2023/05/28 04:36:48;;;;;;;6.30;4.67;;;23.30;46.00;;;;;;4985800;28;20462;-80
2023/05/28 04:39:16;;;;;;;4.77;3.70;;;23.30;46.10;;;;;;4993584;28;20473;-81
2023/05/28 04:41:45;;;;;;;4.77;3.50;;;23.30;46.00;;;;;;4994836;28;20522;-80
2023/05/28 04:44:15;;;;;;;3.77;3.47;;;23.30;46.00;;;;;;4997004;28;20461;-80
2023/05/28 04:46:45;;;;;;;6.10;3.57;;;23.30;45.90;;;;;;4995901;28;21028;-80
2023/05/28 04:49:13;;;;;;;5.00;3.80;;;23.40;46.00;;;;;;4990726;28;20477;-80
2023/05/28 04:51:41;;;;;;;3.60;3.30;;;23.30;45.80;;;;;;4997578;28;20557;-80
2023/05/28 04:54:11;;;;;;;4.40;3.60;;;23.40;45.90;;;;;;4997499;28;20958;-80
2023/05/28 04:56:39;;;;;;;4.30;3.97;;;23.40;46.10;;;;;;4988601;28;20505;-80
2023/05/28 04:59:09;;;;;;;4.73;4.07;;;23.40;46.00;;;;;;4992457;28;20473;-80
2023/05/28 05:01:38;;;;;;;4.20;3.80;;;23.40;46.00;;;;;;4995890;28;20456;-80
2023/05/28 05:04:07;;;;;;;3.97;3.53;;;23.40;45.80;;;;;;4997430;28;20445;-80
2023/05/28 05:06:35;;;;;;;4.53;3.50;;;23.40;45.80;;;;;;4997368;28;20472;-80
2023/05/28 05:09:04;;;;;;;5.23;3.57;;;23.40;45.80;;;;;;4997182;28;20434;-80
2023/05/28 05:11:34;;;;;;;5.97;4.00;;;23.50;45.70;;;;;;4984387;28;20454;-79
2023/05/28 05:14:02;;;;;;;4.63;3.40;;;23.40;45.70;;;;;;4997608;28;20466;-80
2023/05/28 05:16:30;;;;;;;4.77;3.80;;;23.50;45.70;;;;;;4997121;28;20437;-80
2023/05/28 05:18:58;;;;;;;5.50;4.00;;;23.50;45.70;;;;;;4996201;28;20500;-79
2023/05/28 05:21:26;;;;;;;4.20;3.60;;;23.60;45.60;;;;;;4996890;28;20473;-80
2023/05/28 05:23:55;;;;;;;3.60;3.30;;;23.60;45.70;;;;;;4994922;28;20487;-80
2023/05/28 05:26:23;;;;;;;3.53;3.23;;;23.60;45.60;;;;;;4995896;28;20533;-79
2023/05/28 05:28:52;;;;;;;3.80;3.50;;;23.70;45.60;;;;;;4995868;28;20429;-80
2023/05/28 05:31:19;;;;;;;4.20;3.63;;;23.70;45.40;;;;;;4995403;28;20440;-79
2023/05/28 05:33:47;;;;;;;3.83;3.43;;;23.70;45.50;;;;;;4994922;28;20448;-79
2023/05/28 05:36:15;;;;;;;3.63;3.20;;;23.70;45.60;;;;;;4992462;28;20469;-79
2023/05/28 05:38:45;;;;;;;5.20;4.17;;;23.70;45.60;;;;;;4984661;28;20544;-79
2023/05/28 05:41:14;;;;;;;7.03;3.90;;;23.70;45.50;;;;;;4989734;28;20444;-79
2023/05/28 05:43:42;;;;;;;4.83;3.23;;;23.70;45.60;;;;;;4988101;28;20469;-79
2023/05/28 05:46:11;;;;;;;4.23;3.10;;;23.70;45.60;;;;;;4994045;28;20508;-79
2023/05/28 05:48:39;;;;;;;3.93;3.40;;;23.70;45.50;;;;;;4990568;28;20445;-80
2023/05/28 05:51:08;;;;;;;6.43;3.73;;;23.70;45.70;;;;;;4994277;28;20534;-79
2023/05/28 05:53:41;;;;;;;6.93;3.70;;;23.70;45.80;;;;;;4994173;28;20453;-80
2023/05/28 05:56:09;;;;;;;5.20;3.80;;;23.70;45.50;;;;;;4996243;28;20492;-80
2023/05/28 05:58:37;;;;;;;4.00;3.43;;;23.70;45.60;;;;;;4996344;28;20511;-79
2023/05/28 06:01:06;;;;;;;6.67;3.50;;;23.70;45.70;;;;;;4997208;28;20914;-79
2023/05/28 06:03:36;;;;;;;5.00;3.60;;;23.70;45.60;;;;;;4996357;28;20450;-79
2023/05/28 06:06:06;;;;;;;4.87;3.37;;;23.70;45.40;;;;;;4996400;28;20460;-80
2023/05/28 06:08:34;;;;;;;5.07;3.60;;;23.80;45.70;;;;;;4986895;28;20564;-80
2023/05/28 06:11:03;;;;;;;4.37;3.43;;;23.80;45.50;;;;;;4991469;28;20441;-80
2023/05/28 06:13:31;;;;;;;4.47;3.50;;;23.80;45.30;;;;;;4992444;28;20421;-80
2023/05/28 06:16:00;;;;;;;4.03;3.57;;;23.80;45.40;;;;;;4996231;28;20469;-79
2023/05/28 06:18:28;;;;;;;4.43;3.30;;;23.80;45.40;;;;;;4995870;28;20446;-79
2023/05/28 06:20:57;;;;;;;5.03;3.80;;;23.80;45.60;;;;;;4995668;28;20560;-80
2023/05/28 06:23:25;;;;;;;3.53;3.20;;;23.90;45.60;;;;;;4995385;28;20942;-80
2023/05/28 06:25:53;;;;;;;4.83;3.23;;;23.80;45.40;;;;;;4989122;28;20505;-80
2023/05/28 06:28:21;;;;;;;4.00;3.50;;;23.90;45.50;;;;;;4995096;28;20496;-80
2023/05/28 06:30:49;;;;;;;4.10;3.70;;;24.00;45.60;;;;;;4990661;28;20849;-80
2023/05/28 06:33:17;;;;;;;3.77;3.47;;;24.00;46.10;;;;;;4988297;28;20496;-80
2023/05/28 06:35:45;;;;;;;4.47;2.87;;;24.10;45.30;;;;;;4993962;28;20501;-80
2023/05/28 06:38:15;;;;;;;3.53;3.13;;;24.10;45.40;;;;;;4980970;28;20460;-80
2023/05/28 06:40:44;;;;;;;4.00;3.13;;;24.10;45.00;;;;;;4989506;28;20559;-80
2023/05/28 06:43:12;;;;;;;3.40;3.10;;;24.20;45.20;;;;;;4990415;28;20445;-80
2023/05/28 06:45:40;;;;;;;4.30;3.30;;;24.30;45.10;;;;;;4986872;28;20556;-79
2023/05/28 06:48:08;;;;;;;3.50;3.17;;;24.30;44.90;;;;;;4995565;28;20518;-80
2023/05/28 06:50:36;;;;;;;4.53;3.67;;;24.40;44.90;;;;;;4992537;28;20450;-80
2023/05/28 06:53:04;;;;;;;3.83;3.07;;;24.30;44.90;;;;;;4995018;28;20416;-80
2023/05/28 06:55:34;;;;;;;3.53;3.13;;;24.40;44.90;;;;;;4995670;28;20477;-80
2023/05/28 06:58:02;;;;;;;3.80;3.53;;;24.40;45.00;;;;;;4996444;28;20496;-80
2023/05/28 07:00:30;;;;;;;3.30;3.10;;;24.50;44.80;;;;;;4995722;28;20894;-79
2023/05/28 07:02:58;;;;;;;3.60;3.20;;;24.50;44.90;;;;;;4992557;28;20476;-79
2023/05/28 07:05:26;;;;;;;3.93;3.27;;;24.60;44.70;;;;;;4999144;28;20465;-79
2023/05/28 07:07:55;;;;;;;4.10;3.17;;;24.60;44.70;;;;;;4999071;28;20456;-79
2023/05/28 07:10:23;;;;;;;3.03;2.73;;;24.60;45.00;;;;;;4999174;28;20469;-79
2023/05/28 07:12:53;;;;;;;5.03;2.97;;;24.60;44.80;;;;;;4992241;28;20464;-79
2023/05/28 07:15:21;;;;;;;3.30;3.00;;;24.60;44.80;;;;;;4994551;28;20480;-79
2023/05/28 07:17:49;;;;;;;3.20;2.80;;;24.70;44.80;;;;;;4998204;28;20446;-79
2023/05/28 07:20:17;;;;;;;3.67;3.37;;;24.70;44.90;;;;;;4993547;28;20535;-79
2023/05/28 07:22:46;;;;;;;3.13;2.90;;;24.80;45.00;;;;;;4997565;28;20468;-79
2023/05/28 07:25:14;;;;;;;3.20;3.00;;;24.80;45.00;;;;;;4998734;28;20471;-79
2023/05/28 07:27:42;;;;;;;4.30;3.23;;;24.90;45.10;;;;;;4998572;28;20488;-80
2023/05/28 07:30:12;;;;;;;3.13;2.93;;;25.00;45.00;;;;;;4999129;28;20503;-81
2023/05/28 07:32:40;;;;;;;2.93;2.73;;;25.10;44.90;;;;;;4998149;28;20420;-79
2023/05/28 07:35:08;;;;;;;3.50;3.20;;;25.20;45.00;;;;;;4997922;28;20447;-80
2023/05/28 07:37:38;;;;;;;3.10;2.70;;;25.30;44.70;;;;;;4997351;28;20477;-79
2023/05/28 07:40:08;;;;;;;3.27;2.97;;;25.40;44.70;;;;;;4993181;28;20452;-79
2023/05/28 07:42:36;;;;;;;3.20;2.90;;;25.50;44.60;;;;;;4998217;28;20540;-79
2023/05/28 07:45:05;;;;;;;4.07;3.17;;;25.60;44.40;;;;;;4991024;28;20440;-79
2023/05/28 07:47:35;;;;;;;3.37;3.07;;;25.70;44.30;;;;;;4996728;28;20469;-79
2023/05/28 07:50:04;;;;;;;3.97;3.20;;;25.90;44.30;;;;;;4996577;28;20460;-79
2023/05/28 07:52:32;;;;;;;4.07;3.17;;;26.00;44.20;;;;;;4997020;28;20502;-79
2023/05/28 07:55:00;;;;;;;4.40;3.33;;;26.10;44.20;;;;;;4990206;28;20472;-79
2023/05/28 07:57:28;;;;;;;3.27;3.00;;;26.20;44.10;;;;;;4995121;28;20487;-80
2023/05/28 07:59:56;;;;;;;4.90;2.83;;;26.30;44.00;;;;;;4996504;28;20568;-80
2023/05/28 08:02:24;;;;;;;3.60;3.20;;;26.40;43.90;;;;;;4989986;28;20417;-80
2023/05/28 08:04:54;;;;;;;3.20;3.00;;;26.60;43.80;;;;;;4993983;28;20459;-79
2023/05/28 08:07:22;;;;;;;3.23;2.90;;;26.70;43.80;;;;;;4995619;28;20449;-80
2023/05/28 08:09:50;;;;;;;3.90;3.07;;;26.90;43.70;;;;;;4995014;28;20461;-81
2023/05/28 08:12:18;;;;;;;4.33;3.20;;;27.00;43.60;;;;;;4988939;28;20468;-79
2023/05/28 08:14:47;;;;;;;2.67;2.47;;;27.10;43.50;;;;;;4993905;28;20496;-79
2023/05/28 08:17:15;;;;;;;3.97;2.97;;;27.20;43.30;;;;;;4983448;28;20537;-80
2023/05/28 08:19:43;;;;;;;3.00;2.80;;;27.40;43.30;;;;;;4993585;28;20540;-79
2023/05/28 08:22:28;;;;;;;2.77;2.57;;;27.50;43.10;;;;;;4991176;28;20533;-79
2023/05/28 08:24:57;;;;;;;4.70;3.33;;;27.70;43.10;;;;;;4994797;28;20473;-79
2023/05/28 08:27:25;;;;;;;3.20;2.93;;;27.80;43.00;;;;;;4995732;28;20480;-79
2023/05/28 08:29:53;;;;;;;2.97;2.77;;;28.00;42.90;;;;;;4995261;28;20420;-79
2023/05/28 08:32:21;;;;;;;3.30;3.07;;;28.10;42.70;;;;;;4994120;28;20488;-79
2023/05/28 08:34:49;;;;;;;3.60;2.60;;;28.30;42.60;;;;;;4991339;28;21027;-80
2023/05/28 08:37:17;;;;;;;3.20;3.00;;;28.40;42.50;;;;;;4996560;28;20449;-81
2023/05/28 08:39:47;;;;;;;3.10;2.80;;;28.60;42.50;;;;;;4988760;28;20436;-80
2023/05/28 08:42:15;;;;;;;3.97;3.27;;;28.70;42.30;;;;;;4996855;28;20510;-79
2023/05/28 08:44:43;;;;;;;3.43;3.10;;;28.90;42.20;;;;;;4994742;28;20527;-79
2023/05/28 08:47:11;;;;;;;2.80;2.70;;;29.00;42.10;;;;;;4995476;28;20445;-80
2023/05/28 08:49:42;;;;;;;3.03;2.83;;;29.20;42.00;;;;;;4995788;28;20420;-79
2023/05/28 08:52:10;;;;;;;6.23;2.90;;;29.30;41.80;;;;;;4995840;28;20519;-79
2023/05/28 08:54:38;;;;;;;2.97;2.77;;;29.50;41.80;;;;;;4995059;28;20892;-79
2023/05/28 08:57:08;;;;;;;2.80;2.60;;;29.70;41.60;;;;;;4993883;28;20463;-80
2023/05/28 08:59:39;;;;;;;2.50;2.40;;;29.80;41.50;;;;;;4992372;28;20496;-79
2023/05/28 09:02:07;;;;;;;3.03;2.73;;;29.90;41.30;;;;;;4995975;28;20451;-80
2023/05/28 09:04:36;;;;;;;3.40;3.10;;;30.10;41.20;;;;;;4996318;28;20473;-79
2023/05/28 09:07:05;;;;;;;3.00;2.80;;;30.20;41.00;;;;;;4993157;28;20529;-81
2023/05/28 09:09:34;;;;;;;2.80;2.60;;;30.40;40.90;;;;;;4989257;28;20502;-79
2023/05/28 09:12:05;;;;;;;3.00;2.80;;;30.60;40.80;;;;;;4991010;28;20444;-80
2023/05/28 09:14:38;;;;;;;2.83;2.60;;;30.70;40.70;;;;;;4989426;28;20500;-79
2023/05/28 09:17:08;;;;;;;2.87;2.67;;;30.90;40.60;;;;;;4992754;28;20469;-80
2023/05/28 09:19:36;;;;;;;2.70;2.50;;;31.00;40.40;;;;;;4994922;28;20477;-80
2023/05/28 09:22:05;;;;;;;2.77;2.60;;;31.20;40.30;;;;;;4993736;28;20477;-81
2023/05/28 09:24:33;;;;;;;2.77;2.57;;;31.30;40.20;;;;;;4996443;28;20502;-82
2023/05/28 09:27:01;;;;;;;3.43;2.50;;;31.50;40.00;;;;;;4997362;28;20428;-81
2023/05/28 09:29:30;;;;;;;3.13;2.40;;;31.60;39.80;;;;;;4991895;28;20512;-82
2023/05/28 09:32:00;;;;;;;2.83;2.63;;;31.80;39.60;;;;;;4988229;28;21022;-81
2023/05/28 09:34:29;;;;;;;2.57;2.37;;;32.00;39.60;;;;;;4990736;28;20476;-81
2023/05/28 09:37:01;;;;;;;2.87;2.67;;;32.10;39.40;;;;;;4990243;28;20462;-82
2023/05/28 09:39:29;;;;;;;2.73;2.60;;;32.30;39.30;;;;;;4992535;28;20445;-81
2023/05/28 09:42:03;;;;;;;3.30;3.10;;;32.40;39.10;;;;;;4994491;28;20481;-80
2023/05/28 09:44:32;;;;;;;3.00;2.60;;;32.60;39.00;;;;;;4991121;28;20548;-80
2023/05/28 09:47:02;;;;;;;2.30;2.20;;;32.70;38.80;;;;;;4995841;28;20492;-81
2023/05/28 09:49:31;;;;;;;3.27;2.63;;;32.90;38.70;;;;;;4995570;28;20452;-80
2023/05/28 09:52:01;;;;;;;2.73;2.57;;;33.10;38.60;;;;;;4995347;28;20456;-81
2023/05/28 09:54:31;;;;;;;2.50;2.40;;;33.30;38.40;;;;;;4984783;28;20473;-81
2023/05/28 09:57:02;;;;;;;4.37;2.47;;;33.40;38.30;;;;;;4995964;28;20457;-81
2023/05/28 09:59:31;;;;;;;3.50;2.83;;;33.60;38.20;;;;;;4995259;28;20448;-81
2023/05/28 10:02:06;;;;;;;2.70;2.50;;;33.70;38.10;;;;;;4988608;28;21051;-81
2023/05/28 10:04:35;;;;;;;2.80;2.60;;;33.80;37.80;;;;;;4987431;28;20576;-82
2023/05/28 10:07:05;;;;;;;2.97;2.77;;;34.00;37.70;;;;;;4990473;28;20507;-81
2023/05/28 10:09:33;;;;;;;2.80;2.60;;;34.20;37.60;;;;;;4987531;28;20496;-82
2023/05/28 10:12:06;;;;;;;2.63;2.43;;;34.40;37.50;;;;;;4990710;28;20433;-81
2023/05/28 10:14:34;;;;;;;2.87;2.40;;;34.60;37.40;;;;;;4987862;28;20512;-82
2023/05/28 10:17:04;;;;;;;2.40;2.30;;;34.70;37.20;;;;;;4990694;28;20445;-82
2023/05/28 10:19:34;;;;;;;4.70;2.20;;;34.90;37.00;;;;;;4991966;28;20458;-82
2023/05/28 10:22:02;;;;;;;2.70;2.50;;;35.10;36.80;;;;;;4990092;28;20543;-82
2023/05/28 10:24:31;;;;;;;2.93;2.73;;;35.20;36.60;;;;;;4994984;28;20536;-82
2023/05/28 10:26:59;;;;;;;3.23;2.53;;;35.40;36.40;;;;;;4992294;28;20445;-83
2023/05/28 10:29:27;;;;;;;3.17;2.97;;;35.50;36.20;;;;;;4995453;28;20480;-82
2023/05/28 10:32:00;;;;;;;3.10;2.90;;;35.70;36.00;;;;;;4995709;28;20453;-82
2023/05/28 10:34:32;;;;;;;2.47;2.37;;;35.90;35.90;;;;;;4996799;28;20477;-83
2023/05/28 10:37:01;;;;;;;2.47;2.37;;;36.10;35.70;;;;;;4999081;28;20453;-83
2023/05/28 10:39:40;;;;;;;2.97;2.70;;;36.30;35.50;;;;;;4993310;28;20440;-81
2023/05/28 10:42:08;;;;;;;2.47;2.37;;;36.50;35.30;;;;;;4999529;28;20484;-82
2023/05/28 10:44:50;;;;;;;4.00;2.40;;;36.60;35.00;;;;;;4997155;28;20559;-82
2023/05/28 10:47:18;;;;;;;2.40;2.30;;;36.80;34.90;;;;;;4995031;28;20495;-82
2023/05/28 10:50:01;;;;;;;2.20;2.10;;;37.00;34.70;;;;;;5000478;28;20471;-82
2023/05/28 10:52:32;;;;;;;2.87;2.27;;;37.20;34.50;;;;;;4995812;28;20453;-82
2023/05/28 10:55:03;;;;;;;2.70;2.53;;;37.40;34.30;;;;;;5001055;28;20496;-82
2023/05/28 10:57:40;;;;;;;3.23;2.37;;;37.50;34.20;;;;;;4996257;28;20456;-82
2023/05/28 11:00:12;;;;;;;3.63;2.10;;;37.70;34.00;;;;;;4990199;28;20484;-82
2023/05/28 11:02:44;;;;;;;2.33;2.17;;;37.90;33.80;;;;;;5000465;28;20477;-82
2023/05/28 11:05:14;;;;;;;2.23;2.13;;;38.10;33.60;;;;;;5000331;28;20540;-82
2023/05/28 11:07:42;;;;;;;2.90;2.60;;;38.20;33.40;;;;;;5000302;28;20437;-82
2023/05/28 11:10:11;;;;;;;2.50;2.30;;;38.40;33.10;;;;;;4991310;28;20448;-82
2023/05/28 11:12:40;;;;;;;2.30;2.20;;;38.60;32.90;;;;;;4989650;28;20442;-82
2023/05/28 11:15:09;;;;;;;2.30;2.20;;;38.80;32.80;;;;;;4999463;28;20469;-82
2023/05/28 11:17:38;;;;;;;1.87;1.77;;;39.30;32.20;;;;;;5000295;28;20452;-83
2023/05/28 11:20:19;;;;;;;1.90;1.80;;;40.00;31.40;;;;;;4999875;28;20454;-82
2023/05/28 11:22:48;;;;;;;2.63;1.93;;;40.80;30.40;;;;;;4999665;28;20480;-83
2023/05/28 11:25:21;;;;;;;2.00;1.90;;;41.50;29.80;;;;;;4999845;28;20502;-82
2023/05/28 11:27:50;;;;;;;2.00;1.90;;;42.00;29.00;;;;;;4996268;28;20977;-83
2023/05/28 11:30:20;;;;;;;1.90;1.90;;;42.50;28.60;;;;;;4995245;28;20455;-82
2023/05/28 11:36:20;;;;;;;1.30;1.30;;;43.50;27.30;;;;;;4997424;28;20467;-82
2023/05/28 11:39:06;;;;;;;1.60;1.60;;;43.90;26.70;;;;;;4993177;28;20460;-83
2023/05/28 11:41:50;;;;;;;1.57;1.53;;;44.50;26.60;;;;;;4990798;28;20446;-82
2023/05/28 11:44:30;;;;;;;1.27;1.27;;;45.20;26.30;;;;;;4992107;28;20515;-82
2023/05/28 11:47:05;;;;;;;1.80;1.42;;;45.70;26.00;;;;;;4983861;28;20800;-82
2023/05/28 11:49:42;;;;;;;1.20;1.20;;;46.00;25.50;;;;;;4992717;28;20540;-82
2023/05/28 11:52:22;;;;;;;1.70;1.70;;;46.20;25.00;;;;;;4992126;28;20499;-82
2023/05/28 11:55:01;;;;;;;2.00;1.60;;;46.60;25.00;;;;;;4996258;28;20467;-82
2023/05/28 11:57:36;;;;;;;1.50;1.50;;;46.80;24.50;;;;;;4999410;28;20209;-82
2023/05/28 12:00:20;;;;;;;1.52;1.42;;;47.10;24.40;;;;;;4993378;28;20203;-81
2023/05/28 12:03:07;;;;;;;1.17;1.17;;;47.20;24.20;;;;;;4992276;28;20685;-82
2023/05/28 12:05:41;;;;;;;1.48;1.38;;;47.50;24.00;;;;;;4999539;28;20265;-82
2023/05/28 12:08:14;;;;;;;1.13;1.13;;;47.60;23.70;;;;;;4986672;28;20243;-82
2023/05/28 12:10:42;;;;;;;1.65;1.55;;;47.70;23.70;;;;;;4994159;28;20242;-82
2023/05/28 12:13:12;;;;;;;1.60;1.50;;;47.90;23.70;;;;;;4999570;28;20667;-82
2023/05/28 12:15:40;;;;;;;1.42;1.42;;;48.10;23.60;;;;;;4999638;28;20230;-82
2023/05/28 12:18:08;;;;;;;1.63;1.63;;;48.10;23.40;;;;;;4999173;28;20206;-82
2023/05/28 12:20:38;;;;;;;1.40;1.40;;;48.10;23.30;;;;;;4996678;28;20456;-82
2023/05/28 12:23:07;;;;;;;1.67;1.58;;;48.10;23.50;;;;;;5000138;28;20273;-82
2023/05/28 12:25:46;;;;;;;1.60;1.60;;;48.20;23.20;;;;;;4995257;28;20460;-82
2023/05/28 12:28:15;;;;;;;1.37;1.37;;;48.10;23.40;;;;;;4993201;28;20452;-82
2023/05/28 12:30:43;;;;;;;1.33;1.33;;;48.10;23.50;;;;;;4999948;28;20456;-82
2023/05/28 12:33:11;;;;;;;1.40;1.40;;;47.90;23.40;;;;;;4996566;28;20485;-82
2023/05/28 12:35:40;;;;;;;1.53;1.43;;;47.60;23.70;;;;;;4994235;28;20460;-83
2023/05/28 12:38:08;;;;;;;1.63;1.53;;;47.20;23.90;;;;;;4997883;28;20461;-82
2023/05/28 12:40:36;;;;;;;1.33;1.33;;;46.80;24.20;;;;;;5000449;28;20433;-82
2023/05/28 12:43:06;;;;;;;1.53;1.53;;;46.60;24.30;;;;;;4999301;28;20504;-82
2023/05/28 12:45:35;;;;;;;1.80;1.80;;;46.20;24.20;;;;;;5000803;28;20457;-82
2023/05/28 12:48:03;;;;;;;1.87;1.87;;;45.90;24.30;;;;;;5000538;28;20467;-82
2023/05/28 12:50:34;;;;;;;1.60;1.60;;;45.70;24.50;;;;;;5001399;28;20464;-82
2023/05/28 12:53:04;;;;;;;1.43;1.43;;;45.40;25.10;;;;;;4999599;28;20445;-82
2023/05/28 12:55:32;;;;;;;1.73;1.63;;;45.10;25.00;;;;;;4998021;28;20555;-82
2023/05/28 12:58:01;;;;;;;2.27;2.07;;;44.80;25.40;;;;;;4998265;28;20503;-82
2023/05/28 13:00:31;;;;;;;1.70;1.70;;;44.60;25.40;;;;;;4997894;28;20460;-82
2023/05/28 13:03:02;;;;;;;1.90;1.80;;;44.20;25.70;;;;;;4998012;28;20504;-82
2023/05/28 13:05:32;;;;;;;2.03;2.00;;;44.00;25.90;;;;;;4999362;28;20536;-81
2023/05/28 13:08:03;;;;;;;1.93;1.80;;;43.80;26.10;;;;;;4996181;28;20452;-83
2023/05/28 13:10:31;;;;;;;1.60;1.60;;;43.50;26.20;;;;;;5002960;28;20449;-82
2023/05/28 13:12:59;;;;;;;1.70;1.70;;;43.30;26.40;;;;;;4992102;28;20480;-82
2023/05/28 13:15:27;;;;;;;1.90;1.90;;;43.20;26.50;;;;;;4991416;28;20464;-83
2023/05/28 13:17:59;;;;;;;1.87;1.80;;;43.00;26.70;;;;;;4995587;28;20477;-82
2023/05/28 13:20:32;;;;;;;1.77;1.77;;;42.80;26.70;;;;;;4995449;28;20451;-81
2023/05/28 13:23:00;;;;;;;2.10;2.00;;;42.70;26.90;;;;;;4997298;28;20473;-82
2023/05/28 13:25:28;;;;;;;2.13;2.03;;;42.50;26.90;;;;;;4994155;28;20472;-82
2023/05/28 13:27:58;;;;;;;1.90;1.90;;;42.20;27.20;;;;;;4998722;28;20449;-81
2023/05/28 13:30:32;;;;;;;1.67;1.67;;;42.10;27.20;;;;;;4996355;28;20471;-83
2023/05/28 13:33:16;;;;;;;2.00;1.90;;;41.90;27.40;;;;;;4999028;28;20445;-82